Time;durP1;ratioP1;P1;durP2;ratioP2;P2;SDS_P1;SDS_P2;PMS_P1;PMS_P2;Temp;Humidity;BMP_temperature;BMP_pressure;BME280_temperature;BME280_humidity;BME280_pressure;Samples;Min_cycle;Max_cycle;Signal;HPM_P1;HPM_P2
2023/09/07 00:01:52;;;;;;;4.40;3.38;;;15.60;99.90;;;;;;5097735;28;20035;-73
2023/09/07 00:04:19;;;;;;;4.60;3.38;;;15.60;99.90;;;;;;5097707;28;20108;-74
2023/09/07 00:06:45;;;;;;;5.03;3.00;;;15.50;99.90;;;;;;5115356;28;20480;-74
2023/09/07 00:09:11;;;;;;;4.43;3.05;;;15.50;99.90;;;;;;5115367;28;20032;-73
2023/09/07 00:11:38;;;;;;;4.97;3.08;;;15.50;99.90;;;;;;5115337;28;20403;-73
2023/09/07 00:14:04;;;;;;;4.57;2.97;;;15.40;99.90;;;;;;5115347;28;20111;-73
2023/09/07 00:16:35;;;;;;;5.65;3.40;;;15.50;99.90;;;;;;5097106;28;20395;-74
2023/09/07 00:19:02;;;;;;;;;;;15.40;99.90;;;;;;5115627;28;20480;-73
2023/09/07 00:21:27;;;;;;;4.60;3.15;;;15.40;99.90;;;;;;5115219;28;20321;-73
2023/09/07 00:23:54;;;;;;;4.50;3.30;;;15.30;99.90;;;;;;5115459;28;20110;-74
2023/09/07 00:26:20;;;;;;;5.25;3.20;;;15.30;99.90;;;;;;5115372;28;20474;-73
2023/09/07 00:28:46;;;;;;;5.90;3.28;;;15.30;99.90;;;;;;5115025;28;20024;-73
2023/09/07 00:31:12;;;;;;;3.85;2.80;;;15.30;99.90;;;;;;5097155;28;20445;-73
2023/09/07 00:33:37;;;;;;;5.22;3.25;;;15.20;99.90;;;;;;5115534;28;20019;-73
2023/09/07 00:36:03;;;;;;;4.93;2.90;;;15.20;99.90;;;;;;5114990;28;20027;-73
2023/09/07 00:38:29;;;;;;;4.20;3.08;;;15.10;99.90;;;;;;5115018;28;20102;-73
2023/09/07 00:40:55;;;;;;;4.65;2.92;;;15.00;99.90;;;;;;5114305;28;20023;-73
2023/09/07 00:43:20;;;;;;;4.63;2.83;;;14.90;99.90;;;;;;5115104;28;20027;-74
2023/09/07 00:45:46;;;;;;;4.47;2.90;;;14.90;99.90;;;;;;5114777;28;20063;-73
2023/09/07 00:48:14;;;;;;;3.85;2.88;;;14.80;99.90;;;;;;5114930;28;20495;-73
2023/09/07 00:50:41;;;;;;;3.90;3.08;;;14.70;99.90;;;;;;5096138;28;20484;-73
2023/09/07 00:53:07;;;;;;;3.58;2.58;;;14.60;99.90;;;;;;5096172;28;20073;-73
2023/09/07 00:55:34;;;;;;;4.43;3.22;;;14.60;99.90;;;;;;5114882;28;20028;-73
2023/09/07 00:58:03;;;;;;;4.90;3.42;;;14.50;99.90;;;;;;5114967;28;20024;-73
2023/09/07 01:00:29;;;;;;;5.07;3.10;;;14.50;99.90;;;;;;5096548;28;20050;-73
2023/09/07 01:02:55;;;;;;;5.78;3.58;;;14.50;99.90;;;;;;5114263;28;20470;-73
2023/09/07 01:05:34;;;;;;;4.90;3.80;;;14.50;99.90;;;;;;5113451;28;20024;-73
2023/09/07 01:08:08;;;;;;;4.30;2.92;;;14.40;99.90;;;;;;5093915;28;20484;-73
2023/09/07 01:10:34;;;;;;;5.55;3.90;;;14.30;99.90;;;;;;5097502;28;20487;-73
2023/09/07 01:13:00;;;;;;;4.55;3.22;;;14.30;99.90;;;;;;5110412;28;20027;-73
2023/09/07 01:15:26;;;;;;;8.90;3.50;;;14.30;99.90;;;;;;5081817;28;20501;-73
2023/09/07 01:17:51;;;;;;;4.30;3.13;;;14.30;99.90;;;;;;5094394;28;20388;-73
2023/09/07 01:20:18;;;;;;;5.05;3.17;;;14.30;99.90;;;;;;5095371;28;20023;-73
2023/09/07 01:22:45;;;;;;;4.35;2.75;;;14.20;99.90;;;;;;5107225;28;20115;-73
2023/09/07 01:25:11;;;;;;;4.65;3.10;;;14.20;99.90;;;;;;5100341;28;20020;-73
2023/09/07 01:27:36;;;;;;;4.68;3.00;;;14.20;99.90;;;;;;5113419;28;20080;-73
2023/09/07 01:30:03;;;;;;;4.68;3.10;;;14.20;99.90;;;;;;5106233;28;20015;-73
2023/09/07 01:32:28;;;;;;;5.20;2.97;;;14.20;99.90;;;;;;5100113;28;20555;-73
2023/09/07 01:34:58;;;;;;;4.82;2.97;;;14.20;99.90;;;;;;5094351;28;20070;-73
2023/09/07 01:37:24;;;;;;;6.50;3.78;;;14.20;99.90;;;;;;5099753;28;20069;-73
2023/09/07 01:39:50;;;;;;;5.55;3.20;;;14.10;99.90;;;;;;5100254;28;20481;-73
2023/09/07 01:42:15;;;;;;;6.20;3.55;;;14.10;99.90;;;;;;5091348;28;20077;-73
2023/09/07 01:44:43;;;;;;;6.03;3.63;;;14.00;99.90;;;;;;5091486;28;20032;-73
2023/09/07 01:47:08;;;;;;;5.22;2.95;;;13.90;99.90;;;;;;5073655;28;20039;-73
2023/09/07 01:49:34;;;;;;;5.97;3.03;;;13.90;99.90;;;;;;5091367;28;20028;-73
2023/09/07 01:52:00;;;;;;;5.18;3.15;;;13.80;99.90;;;;;;5093605;28;20063;-73
2023/09/07 01:54:25;;;;;;;6.45;3.55;;;13.80;99.90;;;;;;5079611;28;20032;-73
2023/09/07 01:56:51;;;;;;;5.25;3.40;;;13.80;99.90;;;;;;5079501;28;20028;-73
2023/09/07 01:59:17;;;;;;;4.38;3.08;;;13.80;99.90;;;;;;5079413;28;20028;-73
2023/09/07 02:01:42;;;;;;;6.53;3.60;;;13.70;99.90;;;;;;5097612;28;20111;-73
2023/09/07 02:04:08;;;;;;;7.63;4.50;;;13.70;99.90;;;;;;5097798;28;20043;-73
2023/09/07 02:06:33;;;;;;;7.88;4.78;;;13.70;99.90;;;;;;5097471;28;20035;-73
2023/09/07 02:08:59;;;;;;;9.48;4.97;;;13.70;99.90;;;;;;5079723;28;20036;-73
2023/09/07 02:11:25;;;;;;;6.28;4.28;;;13.70;99.90;;;;;;5097283;28;20515;-73
2023/09/07 02:13:50;;;;;;;6.70;3.83;;;13.70;99.90;;;;;;5097526;28;20084;-73
2023/09/07 02:16:18;;;;;;;5.22;3.25;;;13.70;99.90;;;;;;5097298;28;20102;-73
2023/09/07 02:18:45;;;;;;;4.53;2.92;;;13.60;99.90;;;;;;5078971;28;20035;-73
2023/09/07 02:21:11;;;;;;;3.95;2.75;;;13.60;99.90;;;;;;5097100;28;20028;-73
2023/09/07 02:23:37;;;;;;;6.72;4.57;;;13.60;99.90;;;;;;5097390;28;20107;-73
2023/09/07 02:26:03;;;;;;;10.93;6.68;;;13.60;99.90;;;;;;5078833;28;20115;-73
2023/09/07 02:28:29;;;;;;;15.77;9.63;;;13.60;99.90;;;;;;5097050;28;20028;-73
2023/09/07 02:31:02;;;;;;;12.35;7.53;;;13.50;99.90;;;;;;5096973;28;20070;-73
2023/09/07 02:33:28;;;;;;;8.32;5.38;;;13.50;99.90;;;;;;5097241;28;20357;-73
2023/09/07 02:35:53;;;;;;;6.45;3.97;;;13.50;99.90;;;;;;5096949;28;20020;-73
2023/09/07 02:38:19;;;;;;;7.43;3.22;;;13.50;99.90;;;;;;5097449;28;20028;-74
2023/09/07 02:40:45;;;;;;;4.63;3.17;;;13.40;99.90;;;;;;5096897;28;20032;-73
2023/09/07 02:43:11;;;;;;;4.40;2.78;;;13.40;99.90;;;;;;5096877;28;20031;-74
2023/09/07 02:45:38;;;;;;;4.85;3.40;;;13.40;99.90;;;;;;5096794;28;20476;-73
2023/09/07 02:48:05;;;;;;;4.93;3.53;;;13.30;99.90;;;;;;5096623;28;20061;-73
2023/09/07 02:50:33;;;;;;;4.45;3.10;;;13.20;99.90;;;;;;5096525;28;20024;-73
2023/09/07 02:53:00;;;;;;;5.25;3.45;;;13.10;99.90;;;;;;5096426;28;20472;-74
2023/09/07 02:55:26;;;;;;;5.15;2.97;;;13.10;99.90;;;;;;5096539;28;20028;-73
2023/09/07 02:57:52;;;;;;;3.70;2.90;;;13.00;99.90;;;;;;5096559;28;20024;-73
2023/09/07 03:00:17;;;;;;;4.00;2.75;;;13.00;99.90;;;;;;5078241;28;20035;-74
2023/09/07 03:02:46;;;;;;;4.70;3.00;;;13.00;99.90;;;;;;5096055;28;20060;-73
2023/09/07 03:05:11;;;;;;;4.70;2.90;;;13.00;99.90;;;;;;5061546;28;20024;-73
2023/09/07 03:07:39;;;;;;;5.63;3.20;;;13.00;99.90;;;;;;5096319;28;20074;-73
2023/09/07 03:10:05;;;;;;;4.85;3.58;;;13.00;99.90;;;;;;5096184;28;20020;-73
2023/09/07 03:12:31;;;;;;;4.75;3.28;;;13.00;99.90;;;;;;5077958;28;20469;-74
2023/09/07 03:14:56;;;;;;;4.30;2.97;;;13.00;99.90;;;;;;5096122;28;20017;-74
2023/09/07 03:17:22;;;;;;;6.68;3.58;;;13.00;99.90;;;;;;5096155;28;20392;-73
2023/09/07 03:19:48;;;;;;;4.93;3.25;;;13.00;99.90;;;;;;5077999;28;20123;-73
2023/09/07 03:22:14;;;;;;;4.45;3.30;;;13.00;99.90;;;;;;5095997;28;20032;-73
2023/09/07 03:24:40;;;;;;;4.00;3.08;;;13.00;99.90;;;;;;5077855;28;20032;-74
2023/09/07 03:27:06;;;;;;;5.05;3.50;;;13.00;99.90;;;;;;5095947;28;20392;-74
2023/09/07 03:29:33;;;;;;;4.82;2.97;;;12.90;99.90;;;;;;5095758;28;20063;-73
2023/09/07 03:32:00;;;;;;;4.45;3.22;;;12.90;99.90;;;;;;5095870;28;20377;-74
2023/09/07 03:34:26;;;;;;;4.47;3.20;;;12.90;99.90;;;;;;5095723;28;20020;-73
2023/09/07 03:36:51;;;;;;;5.00;3.28;;;12.80;99.90;;;;;;5095724;28;20433;-73
2023/09/07 03:39:18;;;;;;;5.35;3.30;;;12.80;99.90;;;;;;5077972;28;20036;-73
2023/09/07 03:41:44;;;;;;;4.88;3.13;;;12.80;99.90;;;;;;5095532;28;20473;-73
2023/09/07 03:44:10;;;;;;;4.40;3.00;;;12.70;99.90;;;;;;5060738;28;20036;-73
2023/09/07 03:46:36;;;;;;;5.85;3.38;;;12.70;99.90;;;;;;5077373;28;20093;-73
2023/09/07 03:49:02;;;;;;;5.63;3.30;;;12.70;99.90;;;;;;5060657;28;20128;-73
2023/09/07 03:51:28;;;;;;;6.90;3.35;;;12.60;99.90;;;;;;5095245;28;20074;-73
2023/09/07 03:53:53;;;;;;;5.53;3.13;;;12.60;99.90;;;;;;5077288;28;20059;-73
2023/09/07 03:56:19;;;;;;;4.38;2.85;;;12.50;99.90;;;;;;5095220;28;20028;-73
2023/09/07 03:58:47;;;;;;;3.97;2.80;;;12.50;99.90;;;;;;5095601;28;20064;-73
2023/09/07 04:01:13;;;;;;;4.85;3.00;;;12.40;99.90;;;;;;5100440;28;20039;-73
2023/09/07 04:03:40;;;;;;;4.20;2.85;;;12.40;99.90;;;;;;5115581;28;20028;-73
2023/09/07 04:06:06;;;;;;;4.05;2.85;;;12.40;99.90;;;;;;5115716;28;20023;-73
2023/09/07 04:08:32;;;;;;;6.70;2.70;;;12.40;99.90;;;;;;5115300;28;20032;-73
2023/09/07 04:10:58;;;;;;;5.30;2.78;;;12.30;99.90;;;;;;5114110;28;20392;-73
2023/09/07 04:13:23;;;;;;;4.95;2.80;;;12.30;99.90;;;;;;5114901;28;20026;-73
2023/09/07 04:15:49;;;;;;;10.15;2.85;;;12.20;99.90;;;;;;5100325;28;20027;-73
2023/09/07 04:18:16;;;;;;;7.43;3.20;;;12.20;99.90;;;;;;5096614;28;20547;-73
2023/09/07 04:20:42;;;;;;;6.05;3.17;;;12.20;99.90;;;;;;5100695;28;20384;-73
2023/09/07 04:23:08;;;;;;;4.85;3.13;;;12.10;99.90;;;;;;5101625;28;20386;-73
2023/09/07 04:25:33;;;;;;;5.93;3.28;;;12.10;99.90;;;;;;5101431;28;20028;-73
2023/09/07 04:28:00;;;;;;;7.03;3.30;;;12.10;99.90;;;;;;5107946;28;20030;-72
2023/09/07 04:30:26;;;;;;;5.32;3.72;;;12.10;99.90;;;;;;5108220;28;20392;-73
2023/09/07 04:32:51;;;;;;;5.47;3.22;;;12.10;99.90;;;;;;5094891;28;20016;-73
2023/09/07 04:35:17;;;;;;;5.22;3.10;;;12.10;99.90;;;;;;5094829;28;20024;-73
2023/09/07 04:37:43;;;;;;;5.63;3.47;;;12.10;99.90;;;;;;5076523;28;20016;-73
2023/09/07 04:40:10;;;;;;;6.63;3.35;;;12.10;99.90;;;;;;5094748;28;20446;-73
2023/09/07 04:42:36;;;;;;;4.25;3.08;;;12.10;99.90;;;;;;5099919;28;20036;-73
2023/09/07 04:45:03;;;;;;;4.75;3.30;;;12.10;99.90;;;;;;5091118;28;20084;-73
2023/09/07 04:47:28;;;;;;;7.22;3.53;;;12.00;99.90;;;;;;5081390;28;20032;-73
2023/09/07 04:49:54;;;;;;;4.22;3.22;;;12.00;99.90;;;;;;5113425;28;20036;-73
2023/09/07 04:52:20;;;;;;;4.30;2.95;;;12.00;99.90;;;;;;5098870;28;20035;-73
2023/09/07 04:54:45;;;;;;;7.10;3.47;;;11.90;99.90;;;;;;5105016;28;20034;-73
2023/09/07 04:57:12;;;;;;;4.75;2.72;;;11.90;99.90;;;;;;5114022;28;20077;-73
2023/09/07 04:59:37;;;;;;;7.18;3.70;;;11.90;99.90;;;;;;5096848;28;20464;-73
2023/09/07 05:02:03;;;;;;;6.75;3.10;;;11.90;99.90;;;;;;5094275;28;20093;-74
2023/09/07 05:04:30;;;;;;;6.30;3.30;;;11.90;99.90;;;;;;5076032;28;20137;-73
2023/09/07 05:06:57;;;;;;;6.53;3.47;;;11.80;99.90;;;;;;5097458;28;20043;-73
2023/09/07 05:09:23;;;;;;;5.25;2.90;;;11.80;99.90;;;;;;5114156;28;20110;-73
2023/09/07 05:11:49;;;;;;;4.47;2.83;;;11.80;99.90;;;;;;5095960;28;20387;-74
2023/09/07 05:14:15;;;;;;;4.93;3.17;;;11.80;99.90;;;;;;5113754;28;20032;-73
2023/09/07 05:16:43;;;;;;;5.70;3.38;;;11.80;99.90;;;;;;5086374;28;20127;-74
2023/09/07 05:19:09;;;;;;;3.97;2.92;;;11.70;99.90;;;;;;5094100;28;20401;-74
2023/09/07 05:21:35;;;;;;;5.03;3.00;;;11.70;99.90;;;;;;5102765;28;20027;-73
2023/09/07 05:24:01;;;;;;;5.07;3.13;;;11.60;99.90;;;;;;5113445;28;20036;-73
2023/09/07 05:26:26;;;;;;;4.60;2.80;;;11.70;99.90;;;;;;5095140;28;20023;-74
2023/09/07 05:28:52;;;;;;;5.65;3.75;;;11.70;99.90;;;;;;5095160;28;20031;-73
2023/09/07 05:31:18;;;;;;;5.65;3.55;;;11.70;99.90;;;;;;5105384;28;20027;-73
2023/09/07 05:33:43;;;;;;;7.60;3.60;;;11.70;99.90;;;;;;5075844;28;20101;-73
2023/09/07 05:36:09;;;;;;;5.68;3.72;;;11.70;99.90;;;;;;5093687;28;20028;-73
2023/09/07 05:38:35;;;;;;;5.10;3.38;;;11.80;99.90;;;;;;5089754;28;20459;-73
2023/09/07 05:41:00;;;;;;;6.25;3.88;;;11.80;99.90;;;;;;5113241;28;20098;-73
2023/09/07 05:43:26;;;;;;;7.05;4.10;;;11.80;99.90;;;;;;5113262;28;20028;-73
2023/09/07 05:45:52;;;;;;;7.50;4.10;;;11.80;99.90;;;;;;5113708;28;20030;-73
2023/09/07 05:48:18;;;;;;;6.10;3.42;;;11.70;99.90;;;;;;5095201;28;20034;-73
2023/09/07 05:50:44;;;;;;;5.00;3.53;;;11.70;99.90;;;;;;5113793;28;20391;-73
2023/09/07 05:53:09;;;;;;;5.70;3.75;;;11.60;99.90;;;;;;5114048;28;20024;-74
2023/09/07 05:55:35;;;;;;;4.90;3.60;;;11.70;99.90;;;;;;5080149;28;20038;-73
2023/09/07 05:58:05;;;;;;;6.10;4.10;;;11.70;99.90;;;;;;5112604;28;20023;-72
2023/09/07 06:00:30;;;;;;;6.35;3.70;;;11.80;99.90;;;;;;5113773;28;20024;-73
2023/09/07 06:02:56;;;;;;;6.15;3.90;;;11.90;99.90;;;;;;5114304;28;20016;-73
2023/09/07 06:05:22;;;;;;;5.03;3.58;;;12.00;99.90;;;;;;5113438;28;20024;-72
2023/09/07 06:07:48;;;;;;;6.45;3.83;;;12.00;99.90;;;;;;5114070;28;20031;-73
2023/09/07 06:10:14;;;;;;;6.90;4.25;;;12.10;99.90;;;;;;5113838;28;20035;-73
2023/09/07 06:12:39;;;;;;;6.88;4.60;;;12.20;99.90;;;;;;5113864;28;20076;-73
2023/09/07 06:15:06;;;;;;;8.27;5.03;;;12.20;99.90;;;;;;5113915;28;20030;-73
2023/09/07 06:17:31;;;;;;;7.13;4.70;;;12.30;99.90;;;;;;5113697;28;20383;-72
2023/09/07 06:19:57;;;;;;;8.80;4.60;;;12.40;99.90;;;;;;5113950;28;20035;-72
2023/09/07 06:22:23;;;;;;;14.65;5.68;;;12.50;99.90;;;;;;5113747;28;20031;-73
2023/09/07 06:24:49;;;;;;;9.18;4.72;;;12.50;99.90;;;;;;5113753;28;20036;-72
2023/09/07 06:27:15;;;;;;;10.23;5.07;;;12.60;99.90;;;;;;5113514;28;20081;-73
2023/09/07 06:29:40;;;;;;;6.75;4.70;;;12.70;99.90;;;;;;5113364;28;20028;-73
2023/09/07 06:32:06;;;;;;;7.35;5.07;;;12.70;99.90;;;;;;5113457;28;20544;-72
2023/09/07 06:34:32;;;;;;;10.07;5.10;;;12.80;99.90;;;;;;5095262;28;20494;-73
2023/09/07 06:36:58;;;;;;;8.13;5.15;;;12.90;99.90;;;;;;5095150;28;20024;-72
2023/09/07 06:39:23;;;;;;;6.50;4.47;;;13.00;99.90;;;;;;5115932;28;20038;-73
2023/09/07 06:41:49;;;;;;;11.77;5.35;;;13.00;99.90;;;;;;5117096;28;20035;-73
2023/09/07 06:44:15;;;;;;;7.40;4.93;;;13.10;99.90;;;;;;5099234;28;20492;-73
2023/09/07 06:46:41;;;;;;;8.60;4.63;;;13.20;99.90;;;;;;5098858;28;20053;-73
2023/09/07 06:49:07;;;;;;;7.82;5.13;;;13.20;99.90;;;;;;5117183;28;20038;-73
2023/09/07 06:51:33;;;;;;;10.18;6.32;;;13.30;99.90;;;;;;5117711;28;20022;-73
2023/09/07 06:53:59;;;;;;;8.98;5.20;;;13.40;99.90;;;;;;5116823;28;20039;-73
2023/09/07 06:56:26;;;;;;;10.32;6.07;;;13.50;99.90;;;;;;5116980;28;20027;-73
2023/09/07 06:58:52;;;;;;;11.35;6.35;;;13.50;99.90;;;;;;5116889;28;20559;-73
2023/09/07 07:01:18;;;;;;;9.68;5.40;;;13.60;99.90;;;;;;5081698;28;20027;-72
2023/09/07 07:03:44;;;;;;;8.50;5.80;;;13.70;99.90;;;;;;5117065;28;20016;-73
2023/09/07 07:06:09;;;;;;;8.85;5.97;;;13.80;99.90;;;;;;5116819;28;20038;-73
2023/09/07 07:08:35;;;;;;;8.85;5.90;;;13.90;99.90;;;;;;5117167;28;20542;-73
2023/09/07 07:11:01;;;;;;;8.40;5.72;;;14.00;99.90;;;;;;5116604;28;20027;-72
2023/09/07 07:13:27;;;;;;;8.07;5.55;;;14.10;99.90;;;;;;5116578;28;20429;-73
2023/09/07 07:15:52;;;;;;;8.13;5.70;;;14.20;99.90;;;;;;5116585;28;20019;-73
2023/09/07 07:18:18;;;;;;;7.28;5.30;;;14.30;99.90;;;;;;5116541;28;20042;-73
2023/09/07 07:20:45;;;;;;;7.32;5.07;;;14.50;99.90;;;;;;5116353;28;20020;-72
2023/09/07 07:23:12;;;;;;;8.75;5.43;;;14.60;99.90;;;;;;5116486;27;20077;-72
2023/09/07 07:25:38;;;;;;;8.82;5.40;;;14.70;99.90;;;;;;5116444;28;20024;-73
2023/09/07 07:28:05;;;;;;;10.00;6.72;;;14.90;99.90;;;;;;5116758;28;20479;-73
2023/09/07 07:30:38;;;;;;;9.98;7.15;;;15.00;99.90;;;;;;5116422;28;20103;-73
2023/09/07 07:33:04;;;;;;;11.05;7.22;;;15.20;99.90;;;;;;5097985;28;20023;-72
2023/09/07 07:35:31;;;;;;;9.82;6.95;;;15.30;99.90;;;;;;5116437;28;20020;-73
2023/09/07 07:37:56;;;;;;;9.35;7.07;;;15.40;99.90;;;;;;5116188;28;20103;-72
2023/09/07 07:40:22;;;;;;;10.82;6.57;;;15.40;99.90;;;;;;5116056;28;20098;-72
2023/09/07 07:42:48;;;;;;;9.55;6.80;;;15.60;99.90;;;;;;5116123;28;20042;-72
2023/09/07 07:45:14;;;;;;;10.88;7.50;;;15.70;99.90;;;;;;5098236;28;20472;-72
2023/09/07 07:47:41;;;;;;;14.18;7.90;;;15.90;99.90;;;;;;5115887;28;20442;-72
2023/09/07 07:50:07;;;;;;;11.57;8.63;;;16.00;99.90;;;;;;5115791;28;20027;-72
2023/09/07 07:52:34;;;;;;;11.57;7.38;;;16.20;99.90;;;;;;5097363;28;20440;-73
2023/09/07 07:55:00;;;;;;;9.93;7.30;;;16.30;99.90;;;;;;5115810;28;20034;-72
2023/09/07 07:57:26;;;;;;;9.32;7.43;;;16.40;99.90;;;;;;5115712;28;20024;-72
2023/09/07 07:59:52;;;;;;;12.13;8.63;;;16.50;99.90;;;;;;5115862;28;20023;-72
2023/09/07 08:02:17;;;;;;;16.17;10.75;;;16.60;99.90;;;;;;5115621;28;20030;-73
2023/09/07 08:04:43;;;;;;;12.82;8.10;;;16.80;99.90;;;;;;5115589;28;20020;-72
2023/09/07 08:07:09;;;;;;;11.18;7.10;;;16.90;99.90;;;;;;5115550;28;20046;-72
2023/09/07 08:09:35;;;;;;;8.65;6.18;;;17.00;99.90;;;;;;5115354;28;20020;-72
2023/09/07 08:12:05;;;;;;;10.52;6.63;;;17.10;99.90;;;;;;5115359;28;20023;-72
2023/09/07 08:14:31;;;;;;;10.10;6.32;;;17.20;99.90;;;;;;5115922;28;20161;-72
2023/09/07 08:16:57;;;;;;;10.02;7.40;;;17.30;99.90;;;;;;5115382;28;20494;-72
2023/09/07 08:19:24;;;;;;;13.10;7.20;;;17.40;99.90;;;;;;5096679;28;20035;-72
2023/09/07 08:21:50;;;;;;;11.73;7.30;;;17.60;99.90;;;;;;5115073;28;20028;-72
2023/09/07 08:24:16;;;;;;;10.30;7.50;;;17.70;99.90;;;;;;5115278;28;20479;-72
2023/09/07 08:26:43;;;;;;;9.40;7.05;;;17.80;99.90;;;;;;5115772;28;20471;-73
2023/09/07 08:29:10;;;;;;;8.90;6.43;;;17.90;99.90;;;;;;5115017;28;20045;-72
2023/09/07 08:31:38;;;;;;;10.38;8.25;;;18.00;99.90;;;;;;5114610;28;20036;-72
2023/09/07 08:34:05;;;;;;;14.02;9.23;;;18.10;99.90;;;;;;5115232;28;20460;-72
2023/09/07 08:36:34;;;;;;;12.70;10.57;;;18.20;99.90;;;;;;5096907;28;20059;-72
2023/09/07 08:39:05;;;;;;;16.90;10.15;;;18.30;99.90;;;;;;5114844;28;20024;-72
2023/09/07 08:41:31;;;;;;;;;;;18.50;99.90;;;;;;5114755;28;20032;-72
2023/09/07 08:43:57;;;;;;;12.27;8.15;;;18.70;99.90;;;;;;5114543;28;19910;-72
2023/09/07 08:46:24;;;;;;;11.25;8.35;;;18.90;99.90;;;;;;5120204;27;20032;-72
2023/09/07 08:48:51;;;;;;;11.85;8.98;;;19.10;99.90;;;;;;5121932;27;20032;-72
2023/09/07 08:51:19;;;;;;;11.00;7.50;;;19.30;99.90;;;;;;5117159;27;20038;-72
2023/09/07 08:53:46;;;;;;;9.73;6.95;;;19.40;99.90;;;;;;5114571;28;20039;-72
2023/09/07 08:56:17;;;;;;;9.90;6.30;;;19.50;99.90;;;;;;5114359;28;20023;-73
2023/09/07 08:58:44;;;;;;;;;;;19.60;99.90;;;;;;5115009;28;20028;-73
2023/09/07 09:01:10;;;;;;;11.27;5.72;;;19.80;99.90;;;;;;5114317;28;19915;-72
2023/09/07 09:03:36;;;;;;;6.75;5.07;;;20.00;99.90;;;;;;5114762;28;20028;-72
2023/09/07 09:06:04;;;;;;;8.45;5.13;;;20.00;99.90;;;;;;5114356;28;20039;-72
2023/09/07 09:08:40;;;;;;;8.85;5.10;;;20.10;99.90;;;;;;5113311;28;20114;-72
2023/09/07 09:11:07;;;;;;;6.63;4.85;;;20.30;99.90;;;;;;5113090;28;20020;-73
2023/09/07 09:13:32;;;;;;;11.10;4.55;;;20.40;99.90;;;;;;5114200;28;20019;-72
2023/09/07 09:16:01;;;;;;;7.47;4.50;;;20.60;99.90;;;;;;5096106;28;20031;-72
2023/09/07 09:18:28;;;;;;;5.60;4.18;;;20.70;99.90;;;;;;5096367;28;20102;-72
2023/09/07 09:21:00;;;;;;;6.05;4.53;;;20.90;99.90;;;;;;5114195;28;20020;-72
2023/09/07 09:23:37;;;;;;;5.57;4.40;;;21.10;99.90;;;;;;5114341;28;20035;-72
2023/09/07 09:26:04;;;;;;;5.47;3.92;;;21.30;99.90;;;;;;5114172;28;20128;-72
2023/09/07 09:28:34;;;;;;;7.38;4.68;;;21.40;99.90;;;;;;5114022;28;20027;-72
2023/09/07 09:31:01;;;;;;;6.75;4.32;;;21.50;99.90;;;;;;5113977;28;20094;-72
2023/09/07 09:33:29;;;;;;;5.53;4.20;;;21.70;99.90;;;;;;5113727;28;20049;-72
2023/09/07 09:35:56;;;;;;;4.97;3.92;;;21.90;99.90;;;;;;5110229;28;20031;-72
2023/09/07 09:38:22;;;;;;;5.88;4.20;;;22.00;99.90;;;;;;5113979;28;20023;-72
2023/09/07 09:40:48;;;;;;;4.65;3.50;;;22.20;99.90;;;;;;5113858;28;20022;-72
2023/09/07 09:43:13;;;;;;;4.47;3.13;;;22.30;99.90;;;;;;5114212;28;20492;-71
2023/09/07 09:45:39;;;;;;;8.00;3.50;;;22.40;99.90;;;;;;5113829;28;20027;-71
2023/09/07 09:48:06;;;;;;;5.28;3.47;;;22.40;99.90;;;;;;5113727;28;20023;-71
2023/09/07 09:50:37;;;;;;;5.05;3.53;;;22.50;99.90;;;;;;5113992;28;20160;-71
2023/09/07 09:53:07;;;;;;;5.53;3.08;;;22.50;99.90;;;;;;5113861;28;20160;-72
2023/09/07 09:55:38;;;;;;;5.95;3.53;;;22.60;98.80;;;;;;5095656;28;20409;-71
2023/09/07 09:58:04;;;;;;;4.55;3.10;;;22.60;97.80;;;;;;5112673;28;20038;-71
2023/09/07 10:00:30;;;;;;;5.95;3.40;;;22.70;98.70;;;;;;5112852;28;20036;-71
2023/09/07 10:03:07;;;;;;;4.97;3.63;;;22.80;98.30;;;;;;5112361;28;20039;-72
2023/09/07 10:05:34;;;;;;;4.50;3.60;;;22.90;98.40;;;;;;5112569;28;20545;-71
2023/09/07 10:08:14;;;;;;;6.25;3.90;;;23.00;99.10;;;;;;5112711;28;20023;-72
2023/09/07 10:10:42;;;;;;;5.38;3.30;;;23.20;98.80;;;;;;5113499;28;20028;-72
2023/09/07 10:13:07;;;;;;;5.80;3.90;;;23.40;98.80;;;;;;5094918;28;20107;-72
2023/09/07 10:15:38;;;;;;;5.35;3.38;;;23.60;98.30;;;;;;5117735;28;20176;-72
2023/09/07 10:18:15;;;;;;;;;;;23.70;97.90;;;;;;5116530;28;20418;-73
2023/09/07 10:20:47;;;;;;;6.20;3.75;;;23.90;96.80;;;;;;5117785;28;19904;-73
2023/09/07 10:23:13;;;;;;;6.00;4.28;;;23.90;97.50;;;;;;5117832;28;20464;-73
2023/09/07 10:25:40;;;;;;;6.78;4.25;;;24.00;98.60;;;;;;5117813;28;20031;-73
2023/09/07 10:28:05;;;;;;;6.63;3.97;;;24.10;97.90;;;;;;5117517;28;20043;-73
2023/09/07 10:30:32;;;;;;;6.32;3.33;;;24.20;96.50;;;;;;5117302;28;20472;-73
2023/09/07 10:32:58;;;;;;;7.72;3.22;;;24.30;96.90;;;;;;5099031;28;20077;-73
2023/09/07 10:35:25;;;;;;;4.38;2.90;;;24.50;96.40;;;;;;5099067;28;20028;-73
2023/09/07 10:37:51;;;;;;;4.80;3.20;;;24.60;93.90;;;;;;5117282;28;20035;-73
2023/09/07 10:40:21;;;;;;;5.53;3.15;;;24.80;92.80;;;;;;5117467;28;20023;-72
2023/09/07 10:42:47;;;;;;;4.28;3.10;;;24.90;93.00;;;;;;5117470;28;20076;-72
2023/09/07 10:45:16;;;;;;;4.20;2.83;;;25.00;93.30;;;;;;5117137;28;20066;-72
2023/09/07 10:47:43;;;;;;;4.63;3.08;;;25.10;92.20;;;;;;5117115;28;20036;-73
2023/09/07 10:50:13;;;;;;;3.75;2.65;;;25.20;92.50;;;;;;5082016;28;20032;-72
2023/09/07 10:52:41;;;;;;;3.85;3.03;;;25.30;92.90;;;;;;5117023;28;20503;-72
2023/09/07 10:55:10;;;;;;;4.13;3.08;;;25.40;92.10;;;;;;5098820;28;20067;-73
2023/09/07 10:57:46;;;;;;;5.03;3.10;;;25.40;92.30;;;;;;5116937;28;20097;-73
2023/09/07 11:00:13;;;;;;;5.78;3.03;;;25.50;92.40;;;;;;5117225;28;20019;-73
2023/09/07 11:02:40;;;;;;;3.95;2.78;;;25.60;91.50;;;;;;5116767;28;20031;-73
2023/09/07 11:05:07;;;;;;;4.43;2.72;;;25.70;91.80;;;;;;5116912;28;20023;-73
2023/09/07 11:07:33;;;;;;;4.80;2.85;;;25.80;90.10;;;;;;5116705;28;20476;-73
2023/09/07 11:09:59;;;;;;;6.10;3.35;;;25.90;90.30;;;;;;5116673;28;20035;-73
2023/09/07 11:12:25;;;;;;;5.50;3.05;;;26.00;91.20;;;;;;5116605;28;20031;-72
2023/09/07 11:14:54;;;;;;;6.63;3.58;;;26.00;91.60;;;;;;5116520;28;20077;-73
2023/09/07 11:17:26;;;;;;;7.10;3.42;;;26.00;92.00;;;;;;5116471;28;20024;-73
2023/09/07 11:19:52;;;;;;;4.20;3.13;;;26.10;92.10;;;;;;5116467;28;20026;-73
2023/09/07 11:22:19;;;;;;;4.85;2.83;;;26.10;91.20;;;;;;5116297;28;20030;-72
2023/09/07 11:24:45;;;;;;;4.70;3.00;;;26.10;91.70;;;;;;5115999;28;20537;-73
2023/09/07 11:27:11;;;;;;;4.32;3.03;;;26.20;90.80;;;;;;5116599;28;20540;-72
2023/09/07 11:29:39;;;;;;;4.88;3.10;;;26.30;92.00;;;;;;5116262;28;20028;-73
2023/09/07 11:32:09;;;;;;;3.60;2.85;;;26.40;92.10;;;;;;5116241;28;20098;-72
2023/09/07 11:34:35;;;;;;;5.20;3.37;;;26.50;91.30;;;;;;5116199;28;20016;-73
2023/09/07 11:37:02;;;;;;;5.28;3.35;;;26.60;91.00;;;;;;5097925;28;20028;-73
2023/09/07 11:39:28;;;;;;;4.22;2.97;;;26.70;90.80;;;;;;5116444;28;20028;-73
2023/09/07 11:41:54;;;;;;;6.28;3.20;;;26.70;89.70;;;;;;5115981;28;20396;-73
2023/09/07 11:44:20;;;;;;;8.68;3.72;;;26.90;88.50;;;;;;5097894;28;20023;-73
2023/09/07 11:46:46;;;;;;;7.55;3.33;;;27.00;87.80;;;;;;5115980;28;20476;-73
2023/09/07 11:49:12;;;;;;;6.57;3.22;;;27.00;89.70;;;;;;5115948;28;20111;-72
2023/09/07 11:51:39;;;;;;;5.18;2.83;;;27.10;87.60;;;;;;5097525;28;20028;-72
2023/09/07 11:54:05;;;;;;;5.65;2.90;;;27.10;85.80;;;;;;5115692;28;20488;-72
2023/09/07 11:56:31;;;;;;;6.72;2.90;;;27.10;87.00;;;;;;5115941;28;20024;-73
2023/09/07 11:58:57;;;;;;;7.38;3.03;;;27.10;88.40;;;;;;5116240;28;20440;-73
2023/09/07 12:01:23;;;;;;;4.70;2.88;;;27.30;85.80;;;;;;5115641;28;20440;-72
2023/09/07 12:03:48;;;;;;;3.40;2.53;;;27.40;84.20;;;;;;5080662;28;20063;-73
2023/09/07 12:06:14;;;;;;;4.03;2.83;;;27.40;85.00;;;;;;5115898;28;20480;-73
2023/09/07 12:08:57;;;;;;;5.18;2.80;;;27.50;86.10;;;;;;5097249;28;20054;-73
2023/09/07 12:11:23;;;;;;;3.40;2.60;;;27.60;82.50;;;;;;5115727;28;20024;-72
2023/09/07 12:13:49;;;;;;;4.72;2.65;;;27.60;82.40;;;;;;5115480;28;20076;-73
2023/09/07 12:16:14;;;;;;;5.57;3.20;;;27.70;81.50;;;;;;5097066;28;20106;-73
2023/09/07 12:18:40;;;;;;;9.23;4.13;;;27.80;79.70;;;;;;5115320;28;20115;-72
2023/09/07 12:21:07;;;;;;;4.97;3.08;;;27.80;79.90;;;;;;5115288;28;20039;-73
2023/09/07 12:23:32;;;;;;;4.32;2.95;;;27.80;80.00;;;;;;5115275;28;20022;-72
2023/09/07 12:25:58;;;;;;;21.42;5.35;;;27.90;80.60;;;;;;5115240;28;20107;-71
2023/09/07 12:28:23;;;;;;;139.18;19.77;;;28.00;80.60;;;;;;5115032;28;20024;-73
2023/09/07 12:30:49;;;;;;;16.92;5.32;;;28.20;81.70;;;;;;5115037;28;20103;-73
2023/09/07 12:33:15;;;;;;;4.07;2.50;;;28.40;81.70;;;;;;5115900;28;20121;-73
2023/09/07 12:35:40;;;;;;;7.57;3.78;;;28.50;81.10;;;;;;5114670;28;20024;-73
2023/09/07 12:38:07;;;;;;;4.63;3.15;;;28.60;78.60;;;;;;5115148;28;20499;-73
2023/09/07 12:40:32;;;;;;;7.40;3.25;;;28.60;80.90;;;;;;5114897;28;20069;-72
2023/09/07 12:42:58;;;;;;;4.32;2.83;;;28.80;79.30;;;;;;5115138;28;20031;-73